createdAt,value
2023-01-19T00:01:59.721Z,0.80
2023-01-19T00:04:47.493Z,0.57
2023-01-19T00:07:35.636Z,0.50
2023-01-19T00:10:24.843Z,0.73
2023-01-19T00:13:12.820Z,1.10
2023-01-19T00:16:00.720Z,0.60
2023-01-19T00:18:50.378Z,0.60
2023-01-19T00:21:38.139Z,0.63
2023-01-19T00:24:25.921Z,0.60
2023-01-19T00:27:15.085Z,0.70
2023-01-19T00:30:02.962Z,0.85
2023-01-19T00:32:50.854Z,0.80
2023-01-19T00:35:38.608Z,0.82
2023-01-19T00:38:26.409Z,1.00
2023-01-19T00:41:14.164Z,1.10
2023-01-19T00:44:02.349Z,1.40
2023-01-19T00:46:50.090Z,1.05
2023-01-19T00:49:37.841Z,0.73
2023-01-19T00:52:25.649Z,0.77
2023-01-19T00:55:14.467Z,1.13
2023-01-19T00:58:02.862Z,1.48
2023-01-19T01:00:54.082Z,0.95
2023-01-19T01:03:42.118Z,0.80
2023-01-19T01:06:30.102Z,1.03
2023-01-19T01:09:17.913Z,0.90
2023-01-19T01:12:06.055Z,0.68
2023-01-19T01:14:53.901Z,0.68
2023-01-19T01:17:47.256Z,0.90
2023-01-19T01:20:36.997Z,0.80
2023-01-19T01:23:24.812Z,0.70
2023-01-19T01:26:12.682Z,0.90
2023-01-19T01:29:00.425Z,0.70
2023-01-19T01:31:48.364Z,1.00
2023-01-19T01:34:37.569Z,0.80
2023-01-19T01:37:25.317Z,0.90
2023-01-19T01:40:14.596Z,0.60
2023-01-19T01:43:02.747Z,1.05
2023-01-19T01:45:50.894Z,0.90
2023-01-19T01:48:40.083Z,0.90
2023-01-19T01:51:31.412Z,1.10
2023-01-19T01:54:22.468Z,0.80
2023-01-19T01:57:12.333Z,0.47
2023-01-19T02:00:00.303Z,1.15
2023-01-19T02:02:54.996Z,1.40
2023-01-19T02:05:43.200Z,0.85
2023-01-19T02:08:51.800Z,1.02
2023-01-19T02:11:57.046Z,1.02
2023-01-19T02:14:44.820Z,0.95
2023-01-19T02:17:32.696Z,0.90
2023-01-19T02:20:23.214Z,0.63
2023-01-19T02:23:15.560Z,1.00
2023-01-19T02:26:05.097Z,1.00
2023-01-19T02:28:54.908Z,0.80
2023-01-19T02:31:43.225Z,0.80
2023-01-19T02:34:31.559Z,0.85
2023-01-19T02:37:19.425Z,0.80
2023-01-19T02:40:09.180Z,0.80
2023-01-19T02:43:00.857Z,0.80
2023-01-19T02:45:49.947Z,0.90
2023-01-19T02:48:37.698Z,1.00
2023-01-19T02:51:25.944Z,1.02
2023-01-19T02:54:31.421Z,0.82
2023-01-19T02:57:36.123Z,1.02
2023-01-19T03:00:32.579Z,0.83
2023-01-19T03:03:27.050Z,1.30
2023-01-19T03:06:20.380Z,1.15
2023-01-19T03:09:12.354Z,1.25
2023-01-19T03:12:03.317Z,1.20
2023-01-19T03:14:51.048Z,1.40
2023-01-19T03:17:41.036Z,1.80
2023-01-19T03:20:29.027Z,1.45
2023-01-19T03:23:18.331Z,1.75
2023-01-19T03:26:07.207Z,1.75
2023-01-19T03:28:56.635Z,1.87
2023-01-19T03:31:45.542Z,1.77
2023-01-19T03:34:35.317Z,1.40
2023-01-19T03:37:24.032Z,1.50
2023-01-19T03:40:12.865Z,1.42
2023-01-19T03:43:01.546Z,2.00
2023-01-19T03:45:49.919Z,1.15
2023-01-19T03:48:37.894Z,1.30
2023-01-19T03:51:27.764Z,1.00
2023-01-19T03:54:15.550Z,1.00
2023-01-19T03:57:03.366Z,0.70
2023-01-19T03:59:51.169Z,1.02
2023-01-19T04:02:38.949Z,1.58
2023-01-19T04:05:26.772Z,1.25
2023-01-19T04:08:15.977Z,1.60
2023-01-19T04:11:03.704Z,0.97
2023-01-19T04:13:51.714Z,1.45
2023-01-19T04:16:39.768Z,1.27
2023-01-19T04:19:27.573Z,1.40
2023-01-19T04:22:15.412Z,1.27
2023-01-19T04:25:04.744Z,0.93
2023-01-19T04:27:52.781Z,1.23
2023-01-19T04:30:40.560Z,0.90
2023-01-19T04:33:28.695Z,1.73
2023-01-19T04:36:16.464Z,0.93
2023-01-19T04:39:05.012Z,1.40
2023-01-19T04:41:54.249Z,1.55
2023-01-19T04:44:42.047Z,1.35
2023-01-19T04:47:29.780Z,1.10
2023-01-19T04:50:17.686Z,1.58
2023-01-19T04:53:05.618Z,1.20
2023-01-19T04:55:54.597Z,1.75
2023-01-19T04:58:44.834Z,1.50
2023-01-19T05:01:33.096Z,1.55
2023-01-19T05:04:22.391Z,1.60
2023-01-19T05:07:10.255Z,2.00
2023-01-19T05:09:58.150Z,1.25
2023-01-19T05:12:46.062Z,1.20
2023-01-19T05:15:35.241Z,1.63
2023-01-19T05:18:23.076Z,1.38
2023-01-19T05:21:10.873Z,1.30
2023-01-19T05:23:58.633Z,1.52
2023-01-19T05:26:46.547Z,1.17
2023-01-19T05:29:34.337Z,1.50
2023-01-19T05:32:23.523Z,1.17
2023-01-19T05:35:12.794Z,1.53
2023-01-19T05:38:00.706Z,1.33
2023-01-19T05:40:48.749Z,1.45
2023-01-19T05:43:36.502Z,1.08
2023-01-19T05:46:24.365Z,1.30
2023-01-19T05:49:13.938Z,1.50
2023-01-19T05:52:01.728Z,1.00
2023-01-19T05:54:51.288Z,1.10
2023-01-19T05:57:39.104Z,1.48
2023-01-19T06:00:27.577Z,1.50
2023-01-19T06:03:15.436Z,1.20
2023-01-19T06:06:04.958Z,1.42
2023-01-19T06:08:52.778Z,1.20
2023-01-19T06:11:40.584Z,1.10
2023-01-19T06:14:28.647Z,1.00
2023-01-19T06:17:16.640Z,1.50
2023-01-19T06:20:05.307Z,1.50
2023-01-19T06:22:57.359Z,1.40
2023-01-19T06:25:45.192Z,1.67
2023-01-19T06:39:46.820Z,1.67
2023-01-19T06:42:35.053Z,1.70
2023-01-19T06:45:22.757Z,1.43
2023-01-19T06:48:10.557Z,1.50
2023-01-19T06:59:25.818Z,1.40
2023-01-19T07:02:26.113Z,1.40
2023-01-19T07:47:45.532Z,1.50
2023-01-19T07:50:33.294Z,1.15
2023-01-19T07:53:21.129Z,1.23
2023-01-19T07:56:09.243Z,1.33
2023-01-19T07:58:57.088Z,1.35
2023-01-19T08:01:45.091Z,1.33
2023-01-19T08:04:34.369Z,1.30
2023-01-19T08:07:22.178Z,1.92
2023-01-19T08:10:10.868Z,1.50
2023-01-19T08:12:59.453Z,1.10
2023-01-19T08:15:49.900Z,1.23
2023-01-19T08:18:37.785Z,1.42
2023-01-19T08:21:26.965Z,1.42
2023-01-19T08:24:18.889Z,1.30
2023-01-19T08:27:06.924Z,0.98
2023-01-19T08:29:54.746Z,1.05
2023-01-19T08:32:42.548Z,1.30
2023-01-19T08:35:30.443Z,0.73
2023-01-19T08:38:19.925Z,1.03
2023-01-19T08:41:07.858Z,1.50
2023-01-19T08:43:55.674Z,1.17
2023-01-19T08:46:43.487Z,1.27
2023-01-19T08:49:31.383Z,0.98
2023-01-19T08:52:19.202Z,1.17
2023-01-19T08:55:11.200Z,1.55
2023-01-19T08:57:59.940Z,1.60
2023-01-19T09:03:36.955Z,1.20
2023-01-19T09:06:25.308Z,1.20
2023-01-19T09:14:50.396Z,1.13
2023-01-19T09:17:38.225Z,1.00
2023-01-19T09:20:25.962Z,1.30
2023-01-19T09:23:14.828Z,0.95
2023-01-19T09:26:03.281Z,1.10
2023-01-19T09:28:52.517Z,1.05
2023-01-19T09:31:40.984Z,0.90
2023-01-19T09:34:28.889Z,0.90
2023-01-19T09:37:17.054Z,1.10
2023-01-19T09:42:56.748Z,1.00
2023-01-19T10:03:11.868Z,1.10
2023-01-19T10:06:03.451Z,0.98
2023-01-19T10:08:56.395Z,1.10
2023-01-19T10:11:53.768Z,0.85
2023-01-19T10:14:43.973Z,0.90
2023-01-19T10:17:37.686Z,1.30
2023-01-19T10:20:30.346Z,1.40
2023-01-19T10:23:22.844Z,1.00
2023-01-19T10:26:12.976Z,1.05
2023-01-19T10:29:04.224Z,1.20
2023-01-19T10:31:52.931Z,0.97
2023-01-19T10:34:41.510Z,1.40
2023-01-19T10:52:22.250Z,1.20
2023-01-19T10:58:28.370Z,1.20
2023-01-19T11:01:17.832Z,0.90
2023-01-19T11:07:15.015Z,1.13
2023-01-19T11:18:56.524Z,1.13
2023-01-19T11:21:44.287Z,1.00
2023-01-19T11:24:32.072Z,0.95
2023-01-19T11:27:21.972Z,1.10
2023-01-19T11:30:18.502Z,1.13
2023-01-19T11:33:07.051Z,1.00
2023-01-19T11:36:02.932Z,1.05
2023-01-19T11:38:52.063Z,1.23
2023-01-19T11:41:40.563Z,1.10
2023-01-19T11:44:32.174Z,1.30
2023-01-19T11:47:24.682Z,1.00
2023-01-19T11:50:21.398Z,1.20
2023-01-19T11:53:15.562Z,1.02
2023-01-19T11:56:04.900Z,1.00
2023-01-19T11:58:52.652Z,1.07
2023-01-19T12:01:45.819Z,0.98
2023-01-19T12:04:35.688Z,1.52
2023-01-19T12:07:26.479Z,0.70
2023-01-19T12:10:19.428Z,1.13
2023-01-19T12:15:57.751Z,1.23
2023-01-19T12:18:48.960Z,1.30
2023-01-19T12:21:36.804Z,1.20
2023-01-19T12:24:28.626Z,1.23
2023-01-19T12:27:19.416Z,1.33
2023-01-19T12:30:11.215Z,1.30
2023-01-19T12:33:13.815Z,1.75
2023-01-19T12:36:04.042Z,1.00
2023-01-19T12:38:54.628Z,1.15
2023-01-19T12:41:42.575Z,1.07
2023-01-19T12:44:34.058Z,1.02
2023-01-19T12:47:24.202Z,1.13
2023-01-19T12:50:18.977Z,0.90
2023-01-19T13:02:06.214Z,1.00
2023-01-19T13:05:13.960Z,0.90
2023-01-19T13:14:27.553Z,1.50
2023-01-19T13:17:23.260Z,1.30
2023-01-19T13:26:17.466Z,1.10
2023-01-19T13:32:02.483Z,1.20
2023-01-19T13:37:45.506Z,0.82
2023-01-19T13:40:38.801Z,1.03
2023-01-19T13:52:06.220Z,0.90
2023-01-19T14:49:36.905Z,1.33
2023-01-19T14:52:26.637Z,1.47
2023-01-19T14:58:14.255Z,1.42
2023-01-19T15:03:50.877Z,1.33
2023-01-19T15:23:51.736Z,1.70
2023-01-19T15:35:13.363Z,1.53
2023-01-19T15:38:01.167Z,1.70
2023-01-19T15:40:51.671Z,1.40
2023-01-19T15:46:28.122Z,1.83
2023-01-19T16:51:39.263Z,0.90
2023-01-19T16:54:28.016Z,1.40
2023-01-19T17:05:48.989Z,1.13
2023-01-19T17:08:36.865Z,1.65
2023-01-19T17:11:25.548Z,1.73
2023-01-19T17:36:43.762Z,1.58
2023-01-19T17:53:36.688Z,1.63
2023-01-19T19:01:20.655Z,2.78
2023-01-19T19:21:05.882Z,2.50
2023-01-19T20:03:14.804Z,5.20
2023-01-19T20:37:23.512Z,6.70
2023-01-19T20:51:26.900Z,6.10
2023-01-19T20:54:15.614Z,6.72
2023-01-19T20:59:51.463Z,7.07
2023-01-19T21:02:40.539Z,6.70
2023-01-19T21:05:28.795Z,8.00
2023-01-19T21:08:18.085Z,5.82
2023-01-19T21:11:06.367Z,5.75
2023-01-19T21:13:56.036Z,7.00
2023-01-19T21:16:44.109Z,6.38
2023-01-19T21:19:33.308Z,6.43
2023-01-19T21:22:21.107Z,6.25
2023-01-19T21:25:09.275Z,6.72
2023-01-19T21:27:57.053Z,5.13
2023-01-19T21:30:44.879Z,5.60
2023-01-19T21:33:32.703Z,6.65
2023-01-19T21:36:24.567Z,5.00
2023-01-19T21:39:12.349Z,4.80
2023-01-19T21:42:00.148Z,4.70
2023-01-19T21:44:49.510Z,4.80
2023-01-19T21:47:37.343Z,4.95
2023-01-19T21:50:25.043Z,4.55
2023-01-19T21:53:14.176Z,5.13
2023-01-19T21:56:01.973Z,6.23
2023-01-19T21:58:49.710Z,5.40
2023-01-19T22:01:37.567Z,5.00
2023-01-19T22:04:25.419Z,4.10
2023-01-19T22:07:13.131Z,4.18
2023-01-19T22:10:02.232Z,4.27
2023-01-19T22:12:50.047Z,4.40
2023-01-19T22:15:37.829Z,3.75
2023-01-19T22:18:25.545Z,4.32
2023-01-19T22:21:14.665Z,3.53
2023-01-19T22:24:03.726Z,4.30
2023-01-19T22:26:52.802Z,3.92
2023-01-19T22:29:40.525Z,3.72
2023-01-19T22:32:28.318Z,3.40
2023-01-19T22:35:16.331Z,2.72
2023-01-19T22:38:04.120Z,3.03
2023-01-19T22:40:51.844Z,2.80
2023-01-19T22:43:40.995Z,3.10
2023-01-19T22:46:30.385Z,3.13
2023-01-19T22:49:18.939Z,3.55
2023-01-19T22:52:06.707Z,3.43
2023-01-19T22:54:56.196Z,4.28
2023-01-19T22:57:43.974Z,4.50
2023-01-19T23:00:33.083Z,4.95
2023-01-19T23:03:20.898Z,5.15
2023-01-19T23:06:09.615Z,6.00
2023-01-19T23:08:57.889Z,6.22
2023-01-19T23:11:48.401Z,6.25
2023-01-19T23:14:36.564Z,6.72
2023-01-19T23:17:25.703Z,6.90
2023-01-19T23:20:14.301Z,7.33
2023-01-19T23:23:02.059Z,8.07
2023-01-19T23:25:49.800Z,8.90
2023-01-19T23:28:39.121Z,9.57
2023-01-19T23:31:27.955Z,10.23
2023-01-19T23:34:17.358Z,10.40
2023-01-19T23:37:05.175Z,10.02
2023-01-19T23:39:52.947Z,10.63
2023-01-19T23:42:40.654Z,12.10
2023-01-19T23:45:28.421Z,11.85
2023-01-19T23:48:16.224Z,11.47
2023-01-19T23:51:07.658Z,11.65
2023-01-19T23:53:55.827Z,13.25
2023-01-19T23:56:43.657Z,13.70
2023-01-19T23:59:31.408Z,12.73
